TimeCDT,TemperatureF,Dew PointF,Humidity,Sea Level PressureIn,VisibilityMPH,Wind Direction,Wind SpeedMPH,Gust SpeedMPH,PrecipitationIn,Events,Conditions,WindDirDegrees,DateUTC
12:15 AM,66.9,56.8,70,30.30,10.0,SSE,13.8,20.7,N/A,,Clear,150,2013-07-17 05:15:00
12:35 AM,65.8,56.8,73,30.30,10.0,SSE,12.7,-,N/A,,Clear,150,2013-07-17 05:35:00
1:15 AM,64.4,57.2,77,30.30,10.0,SSE,12.7,-,N/A,,Clear,160,2013-07-17 06:15:00
1:35 AM,64.0,57.4,79,30.30,10.0,SSE,11.5,-,N/A,,Clear,160,2013-07-17 06:35:00
1:55 AM,63.1,57.4,81,30.30,10.0,SSE,11.5,-,N/A,,Clear,160,2013-07-17 06:55:00
2:15 AM,62.6,57.6,84,30.29,10.0,SSE,9.2,-,N/A,,Clear,150,2013-07-17 07:15:00
2:35 AM,62.1,57.6,85,30.28,10.0,SSE,11.5,-,N/A,,Clear,150,2013-07-17 07:35:00
2:55 AM,61.7,57.6,86,30.28,10.0,SSE,10.4,-,N/A,,Clear,160,2013-07-17 07:55:00
3:15 AM,61.2,57.7,88,30.28,10.0,SSE,10.4,-,N/A,,Clear,160,2013-07-17 08:15:00
3:35 AM,60.4,57.7,91,30.28,10.0,SSE,10.4,-,N/A,,Clear,160,2013-07-17 08:35:00
3:55 AM,60.4,57.7,91,30.28,10.0,South,10.4,-,N/A,,Clear,170,2013-07-17 08:55:00
4:15 AM,60.1,57.7,92,30.28,10.0,South,9.2,-,N/A,,Clear,170,2013-07-17 09:15:00
4:35 AM,59.4,57.4,93,30.28,10.0,South,8.1,-,N/A,,Clear,170,2013-07-17 09:35:00
4:55 AM,59.0,57.2,94,30.27,7.0,SSE,9.2,-,N/A,,Clear,160,2013-07-17 09:55:00
5:15 AM,59.0,57.4,94,30.27,7.0,SSE,9.2,-,N/A,,Clear,150,2013-07-17 10:15:00
5:35 AM,58.6,57.0,94,30.27,7.0,SE,9.2,-,N/A,,Clear,140,2013-07-17 10:35:00
5:55 AM,59.4,58.1,96,30.28,2.0,SSE,10.4,-,N/A,,Overcast,150,2013-07-17 10:55:00
6:15 AM,59.2,57.7,95,30.28,7.0,SSE,9.2,-,N/A,,Overcast,150,2013-07-17 11:15:00
6:35 AM,59.2,57.6,94,30.28,5.0,SSE,10.4,-,N/A,,Mostly Cloudy,160,2013-07-17 11:35:00
6:55 AM,59.2,57.6,94,30.28,4.0,SSE,9.2,-,N/A,,Mostly Cloudy,160,2013-07-17 11:55:00
7:15 AM,59.4,58.1,96,30.28,4.0,SSE,15.0,-,N/A,,Overcast,160,2013-07-17 12:15:00
7:35 AM,59.9,58.1,94,30.28,5.0,SSE,13.8,-,N/A,,Mostly Cloudy,160,2013-07-17 12:35:00
7:55 AM,60.8,58.3,91,30.28,7.0,SSE,13.8,-,N/A,,Mostly Cloudy,160,2013-07-17 12:55:00
8:15 AM,61.7,58.3,89,30.28,10.0,SSE,15.0,-,N/A,,Mostly Cloudy,160,2013-07-17 13:15:00
8:35 AM,62.8,58.1,85,30.28,10.0,SSE,13.8,-,N/A,,Mostly Cloudy,160,2013-07-17 13:35:00
8:55 AM,63.9,58.1,81,30.29,10.0,South,15.0,-,N/A,,Mostly Cloudy,170,2013-07-17 13:55:00
9:15 AM,65.3,58.1,77,30.29,10.0,South,15.0,-,N/A,,Mostly Cloudy,170,2013-07-17 14:15:00
9:35 AM,66.4,57.9,74,30.29,10.0,South,19.6,23.0,N/A,,Mostly Cloudy,170,2013-07-17 14:35:00
9:55 AM,66.9,57.6,72,30.30,10.0,South,18.4,-,N/A,,Mostly Cloudy,170,2013-07-17 14:55:00
10:15 AM,68.9,57.7,68,30.30,10.0,SSE,17.3,23.0,N/A,,Mostly Cloudy,160,2013-07-17 15:15:00
10:35 AM,70.0,57.6,65,30.30,10.0,SSE,18.4,24.2,N/A,,Scattered Clouds,160,2013-07-17 15:35:00
10:55 AM,71.8,57.2,60,30.29,10.0,SSE,20.7,24.2,N/A,,Clear,160,2013-07-17 15:55:00
11:15 AM,73.8,57.0,56,30.29,10.0,SSE,19.6,25.3,N/A,,Clear,160,2013-07-17 16:15:00
11:35 AM,75.6,56.5,51,30.29,10.0,SSE,19.6,26.5,N/A,,Clear,160,2013-07-17 16:35:00
11:55 AM,77.4,55.4,47,30.29,10.0,SSE,17.3,28.8,N/A,,Clear,150,2013-07-17 16:55:00
12:15 PM,78.6,54.5,43,30.28,10.0,SSE,20.7,26.5,N/A,,Clear,150,2013-07-17 17:15:00
12:35 PM,80.4,53.8,40,30.28,10.0,South,20.7,25.3,N/A,,Clear,170,2013-07-17 17:35:00
12:55 PM,80.2,52.9,39,30.28,10.0,South,20.7,25.3,N/A,,Clear,170,2013-07-17 17:55:00
1:15 PM,81.5,50.0,33,30.27,10.0,South,18.4,29.9,N/A,,Clear,170,2013-07-17 18:15:00
1:35 PM,82.6,49.8,32,30.26,10.0,South,23.0,31.1,N/A,,Clear,180,2013-07-17 18:35:00
1:55 PM,83.1,50.4,32,30.25,10.0,South,21.9,28.8,N/A,,Clear,170,2013-07-17 18:55:00
2:15 PM,84.4,49.6,30,30.25,10.0,South,18.4,31.1,N/A,,Clear,190,2013-07-17 19:15:00
2:35 PM,85.5,49.6,29,30.24,10.0,South,20.7,27.6,N/A,,Clear,180,2013-07-17 19:35:00
2:55 PM,86.2,48.6,27,30.24,10.0,South,19.6,28.8,N/A,,Clear,180,2013-07-17 19:55:00
3:15 PM,86.7,47.8,26,30.24,10.0,South,21.9,28.8,N/A,,Clear,170,2013-07-17 20:15:00
3:35 PM,87.4,47.1,25,30.23,10.0,South,20.7,28.8,N/A,,Clear,180,2013-07-17 20:35:00
3:55 PM,87.1,47.3,25,30.22,10.0,South,20.7,28.8,N/A,,Clear,180,2013-07-17 20:55:00
4:15 PM,88.5,45.5,22,30.21,10.0,South,21.9,26.5,N/A,,Clear,170,2013-07-17 21:15:00
4:35 PM,88.2,46.4,23,30.21,10.0,South,15.0,29.9,N/A,,Clear,180,2013-07-17 21:35:00
4:55 PM,88.2,46.0,23,30.21,10.0,South,20.7,27.6,N/A,,Clear,170,2013-07-17 21:55:00
5:15 PM,89.4,44.2,21,30.19,10.0,South,19.6,28.8,N/A,,Clear,170,2013-07-17 22:15:00
5:35 PM,88.7,45.9,23,30.19,10.0,SSE,19.6,29.9,N/A,,Clear,160,2013-07-17 22:35:00
5:55 PM,88.3,47.3,24,30.19,10.0,South,21.9,31.1,N/A,,Clear,170,2013-07-17 22:55:00
6:15 PM,88.7,47.3,24,30.19,10.0,South,19.6,26.5,N/A,,Clear,180,2013-07-17 23:15:00
6:35 PM,88.3,47.8,25,30.17,10.0,SSE,20.7,26.5,N/A,,Clear,160,2013-07-17 23:35:00
6:55 PM,87.4,48.7,26,30.17,10.0,SSE,23.0,27.6,N/A,,Clear,160,2013-07-17 23:55:00
7:15 PM,87.3,48.6,26,30.16,10.0,SSE,19.6,26.5,N/A,,Clear,160,2013-07-18 00:15:00
7:35 PM,86.4,50.0,28,30.16,10.0,South,21.9,28.8,N/A,,Clear,170,2013-07-18 00:35:00
7:55 PM,86.4,49.1,27,30.16,10.0,South,18.4,21.9,N/A,,Clear,170,2013-07-18 00:55:00
8:15 PM,85.5,49.1,28,30.16,10.0,South,18.4,-,N/A,,Clear,180,2013-07-18 01:15:00
8:35 PM,84.2,49.1,29,30.16,10.0,South,20.7,31.1,N/A,,Clear,170,2013-07-18 01:35:00
8:55 PM,82.6,49.1,31,30.16,10.0,SSE,19.6,26.5,N/A,,Clear,160,2013-07-18 01:55:00
9:15 PM,81.0,49.3,33,30.17,10.0,SSE,20.7,26.5,N/A,,Clear,160,2013-07-18 02:15:00
9:35 PM,79.2,50.4,36,30.18,10.0,SSE,18.4,24.2,N/A,,Clear,160,2013-07-18 02:35:00
9:55 PM,78.1,50.9,39,30.18,10.0,SSE,17.3,-,N/A,,Clear,160,2013-07-18 02:55:00
10:15 PM,77.2,50.9,40,30.18,10.0,South,17.3,25.3,N/A,,Clear,170,2013-07-18 03:15:00
10:35 PM,76.1,51.1,41,30.19,10.0,SSE,18.4,-,N/A,,Clear,160,2013-07-18 03:35:00
10:55 PM,75.4,53.1,46,30.19,10.0,SSE,18.4,25.3,N/A,,Clear,160,2013-07-18 03:55:00
11:15 PM,74.3,55.0,51,30.19,10.0,SSE,20.7,26.5,N/A,,Clear,160,2013-07-18 04:15:00
11:35 PM,73.4,55.4,53,30.19,10.0,SSE,23.0,27.6,N/A,,Clear,160,2013-07-18 04:35:00
11:55 PM,72.9,55.0,53,30.19,10.0,SSE,19.6,27.6,N/A,,Clear,160,2013-07-18 04:55:00